createdAt,value
2018-07-04T00:02:01.734Z,12.77
2018-07-04T00:04:42.058Z,12.40
2018-07-04T00:07:22.250Z,12.37
2018-07-04T00:10:02.685Z,14.47
2018-07-04T00:12:43.093Z,12.13
2018-07-04T00:15:23.378Z,11.07
2018-07-04T00:18:03.696Z,12.53
2018-07-04T00:20:43.979Z,12.13
2018-07-04T00:23:24.305Z,14.80
2018-07-04T00:26:04.669Z,11.80
2018-07-04T00:28:45.020Z,14.00
2018-07-04T00:31:25.284Z,11.30
2018-07-04T00:34:05.798Z,15.50
2018-07-04T00:36:46.108Z,13.43
2018-07-04T00:39:26.353Z,16.00
2018-07-04T00:42:06.622Z,13.07
2018-07-04T00:44:46.959Z,12.93
2018-07-04T00:47:27.430Z,10.83
2018-07-04T00:50:08.246Z,13.47
2018-07-04T00:52:48.477Z,12.63
2018-07-04T00:55:28.923Z,13.10
2018-07-04T00:58:09.277Z,10.73
2018-07-04T01:00:49.726Z,11.07
2018-07-04T01:03:30.069Z,12.20
2018-07-04T01:06:10.484Z,11.87
2018-07-04T01:08:50.846Z,12.43
2018-07-04T01:11:31.245Z,14.03
2018-07-04T01:14:11.636Z,12.87
2018-07-04T01:16:52.094Z,11.17
2018-07-04T01:19:32.570Z,12.00
2018-07-04T01:22:12.865Z,12.20
2018-07-04T01:24:53.373Z,12.87
2018-07-04T01:27:33.933Z,13.10
2018-07-04T01:30:16.683Z,12.70
2018-07-04T01:32:57.218Z,11.43
2018-07-04T01:35:37.566Z,13.40
2018-07-04T01:38:18.046Z,13.53
2018-07-04T01:40:58.570Z,14.50
2018-07-04T01:43:38.933Z,12.50
2018-07-04T01:46:19.467Z,12.73
2018-07-04T01:48:59.789Z,13.20
2018-07-04T01:51:40.498Z,12.50
2018-07-04T01:54:20.994Z,13.63
2018-07-04T01:57:01.509Z,14.33
2018-07-04T01:59:41.742Z,15.00
2018-07-04T02:02:22.154Z,12.87
2018-07-04T02:05:02.453Z,11.37
2018-07-04T02:07:42.885Z,13.17
2018-07-04T02:10:23.253Z,15.70
2018-07-04T02:13:03.675Z,12.10
2018-07-04T02:15:44.028Z,12.67
2018-07-04T02:18:24.442Z,13.47
2018-07-04T02:21:04.707Z,16.83
2018-07-04T02:23:45.082Z,12.50
2018-07-04T02:26:25.482Z,11.87
2018-07-04T02:29:05.756Z,15.67
2018-07-04T02:31:46.110Z,13.27
2018-07-04T02:34:27.300Z,13.27
2018-07-04T02:37:09.054Z,12.77
2018-07-04T02:39:49.321Z,12.73
2018-07-04T02:42:29.505Z,11.67
2018-07-04T02:45:09.689Z,14.23
2018-07-04T02:47:50.267Z,11.77
2018-07-04T02:50:30.650Z,13.03
2018-07-04T02:53:11.089Z,13.00
2018-07-04T02:55:51.537Z,24.93
2018-07-04T02:58:31.774Z,14.63
2018-07-04T03:01:12.154Z,11.70
2018-07-04T03:03:52.590Z,12.40
2018-07-04T03:06:32.902Z,13.07
2018-07-04T03:09:13.331Z,13.27
2018-07-04T03:11:53.602Z,13.57
2018-07-04T03:14:33.914Z,13.53
2018-07-04T03:17:14.192Z,12.93
2018-07-04T03:19:54.637Z,15.53
2018-07-04T03:22:34.921Z,15.10
2018-07-04T03:25:15.361Z,14.40
2018-07-04T03:27:55.885Z,13.30
2018-07-04T03:30:36.192Z,15.47
2018-07-04T03:33:16.691Z,16.03
2018-07-04T03:35:57.176Z,17.73
2018-07-04T03:38:37.671Z,16.80
2018-07-04T03:41:18.047Z,20.70
2018-07-04T03:43:58.396Z,20.40
2018-07-04T03:46:38.894Z,19.80
2018-07-04T03:49:19.246Z,20.77
2018-07-04T03:51:59.708Z,33.97
2018-07-04T03:54:40.171Z,32.83
2018-07-04T03:57:20.523Z,15.97
2018-07-04T04:00:00.877Z,41.10
2018-07-04T04:02:41.251Z,19.13
2018-07-04T04:05:21.920Z,16.67
2018-07-04T04:08:02.354Z,14.87
2018-07-04T04:10:42.665Z,26.73
2018-07-04T04:13:23.093Z,15.00
2018-07-04T04:16:03.294Z,14.73
2018-07-04T04:18:43.805Z,17.50
2018-07-04T04:21:24.247Z,14.67
2018-07-04T04:24:04.502Z,14.77
2018-07-04T04:26:44.831Z,16.33
2018-07-04T04:29:25.185Z,17.60
2018-07-04T04:32:05.551Z,15.07
2018-07-04T04:34:45.955Z,17.10
2018-07-04T04:37:26.520Z,14.47
2018-07-04T04:40:07.003Z,13.87
2018-07-04T04:42:47.324Z,14.07
2018-07-04T04:45:27.808Z,11.93
2018-07-04T04:48:08.169Z,14.50
2018-07-04T04:50:48.733Z,13.20
2018-07-04T04:53:29.224Z,26.20
2018-07-04T04:56:09.745Z,12.30
2018-07-04T04:58:49.897Z,14.00
2018-07-04T05:01:30.443Z,14.63
2018-07-04T05:04:10.688Z,12.77
2018-07-04T05:06:51.036Z,14.10
2018-07-04T05:09:31.477Z,14.67
2018-07-04T05:12:11.859Z,14.07
2018-07-04T05:14:52.205Z,12.53
2018-07-04T05:17:32.458Z,15.03
2018-07-04T05:20:12.746Z,14.50
2018-07-04T05:22:53.036Z,17.87
2018-07-04T05:25:33.414Z,21.10
2018-07-04T05:28:13.835Z,18.80
2018-07-04T05:30:54.116Z,16.40
2018-07-04T05:33:34.925Z,17.37
2018-07-04T05:36:15.470Z,15.93
2018-07-04T05:38:55.799Z,17.17
2018-07-04T05:41:36.390Z,15.17
2018-07-04T05:44:16.787Z,14.17
2018-07-04T05:46:57.043Z,22.00
2018-07-04T05:49:37.467Z,28.87
2018-07-04T05:52:17.863Z,20.57
2018-07-04T05:54:58.235Z,18.07
2018-07-04T05:57:38.909Z,19.17
2018-07-04T06:00:19.305Z,20.43
2018-07-04T06:02:59.676Z,16.17
2018-07-04T06:05:39.946Z,26.20
2018-07-04T06:08:20.509Z,14.80
2018-07-04T06:11:00.851Z,12.73
2018-07-04T06:13:41.203Z,20.90
2018-07-04T06:16:21.476Z,13.20
2018-07-04T06:19:02.171Z,14.67
2018-07-04T06:21:42.687Z,14.60
2018-07-04T06:24:23.058Z,12.50
2018-07-04T06:27:03.962Z,23.10
2018-07-04T06:29:44.555Z,16.87
2018-07-04T06:32:25.027Z,15.17
2018-07-04T06:35:05.371Z,12.30
2018-07-04T06:37:39.306Z,13.50
2018-07-04T06:40:07.758Z,13.37
2018-07-04T06:42:36.852Z,10.80
2018-07-04T06:45:04.865Z,15.37
2018-07-04T06:47:33.182Z,12.27
2018-07-04T06:50:01.306Z,11.87
2018-07-04T06:52:29.365Z,12.37
2018-07-04T06:54:57.470Z,15.23
2018-07-04T06:57:25.616Z,13.43
2018-07-04T06:59:53.770Z,12.20
2018-07-04T07:02:22.174Z,12.30
2018-07-04T07:05:03.610Z,14.43
2018-07-04T07:07:44.964Z,13.13
2018-07-04T07:10:25.278Z,12.50
2018-07-04T07:13:05.710Z,16.37
2018-07-04T07:15:46.047Z,14.17
2018-07-04T07:18:26.537Z,15.00
2018-07-04T07:21:06.822Z,13.17
2018-07-04T07:23:47.096Z,13.63
2018-07-04T07:26:27.396Z,10.60
2018-07-04T07:29:07.964Z,20.93
2018-07-04T07:31:48.455Z,13.53
2018-07-04T07:34:28.802Z,11.70
2018-07-04T07:37:09.279Z,12.23
2018-07-04T07:39:49.698Z,12.67
2018-07-04T07:42:30.099Z,11.70
2018-07-04T07:45:10.607Z,23.27
2018-07-04T07:47:51.197Z,21.63
2018-07-04T07:50:31.822Z,22.20
2018-07-04T07:53:12.271Z,12.13
2018-07-04T07:55:52.821Z,11.77
2018-07-04T07:58:33.193Z,12.70
2018-07-04T08:01:13.924Z,12.57
2018-07-04T08:03:54.498Z,13.97
2018-07-04T08:06:34.870Z,11.70
2018-07-04T08:09:15.262Z,13.60
2018-07-04T08:11:55.606Z,12.50
2018-07-04T08:14:36.051Z,13.53
2018-07-04T08:17:16.589Z,12.37
2018-07-04T08:19:56.914Z,13.27
2018-07-04T08:22:37.261Z,11.30
2018-07-04T08:25:17.722Z,11.70
2018-07-04T08:27:58.208Z,19.50
2018-07-04T08:30:38.762Z,12.90
2018-07-04T08:33:19.197Z,9.37
2018-07-04T08:35:59.485Z,12.43
2018-07-04T08:38:40.067Z,14.83
2018-07-04T08:41:20.471Z,11.23
2018-07-04T08:44:00.983Z,12.20
2018-07-04T08:46:41.406Z,12.23
2018-07-04T08:49:21.910Z,11.23
2018-07-04T08:52:02.370Z,16.30
2018-07-04T08:54:42.755Z,11.27
2018-07-04T08:57:23.236Z,10.70
2018-07-04T09:00:03.498Z,10.67
2018-07-04T09:02:43.946Z,9.33
2018-07-04T09:05:24.270Z,21.23
2018-07-04T09:08:04.775Z,11.10
2018-07-04T09:10:45.178Z,10.00
2018-07-04T09:13:25.559Z,10.97
2018-07-04T09:16:05.878Z,11.00
2018-07-04T09:18:46.426Z,14.50
2018-07-04T09:21:26.935Z,11.07
2018-07-04T09:24:07.284Z,9.40
2018-07-04T09:26:47.815Z,9.53
2018-07-04T09:29:28.248Z,9.33
2018-07-04T09:32:08.620Z,10.43
2018-07-04T09:34:49.013Z,9.83
2018-07-04T09:37:29.401Z,10.73
2018-07-04T09:40:09.711Z,8.43
2018-07-04T09:42:50.144Z,8.57
2018-07-04T09:45:30.394Z,8.57
2018-07-04T09:48:10.873Z,9.33
2018-07-04T09:50:50.949Z,9.47
2018-07-04T09:53:31.364Z,9.20
2018-07-04T09:56:11.921Z,10.90
2018-07-04T09:58:52.607Z,8.63
2018-07-04T10:01:32.976Z,10.03
2018-07-04T10:04:13.485Z,22.67
2018-07-04T10:06:53.862Z,9.60
2018-07-04T10:09:34.163Z,11.70
2018-07-04T10:12:14.626Z,8.20
2018-07-04T10:14:54.967Z,9.73
2018-07-04T10:17:35.379Z,10.40
2018-07-04T10:20:15.624Z,11.43
2018-07-04T10:22:55.991Z,9.43
2018-07-04T10:25:36.327Z,9.13
2018-07-04T10:28:16.729Z,15.87
2018-07-04T10:30:57.169Z,10.70
2018-07-04T10:33:37.530Z,15.90
2018-07-04T10:36:18.040Z,9.87
2018-07-04T10:38:58.437Z,9.93
2018-07-04T10:41:38.810Z,11.83
2018-07-04T10:44:19.125Z,13.23
2018-07-04T10:46:59.435Z,8.60
2018-07-04T10:49:39.919Z,17.70
2018-07-04T10:52:20.352Z,9.10
2018-07-04T10:55:00.745Z,6.93
2018-07-04T10:57:41.145Z,6.60
2018-07-04T11:00:21.398Z,8.03
2018-07-04T11:03:01.951Z,7.20
2018-07-04T11:05:42.394Z,7.33
2018-07-04T11:08:22.975Z,7.43
2018-07-04T11:11:03.429Z,8.27
2018-07-04T11:13:43.834Z,6.87
2018-07-04T11:16:24.080Z,7.13
2018-07-04T11:19:04.609Z,7.57
2018-07-04T11:21:45.073Z,8.07
2018-07-04T11:24:25.541Z,7.40
2018-07-04T11:27:06.204Z,12.13
2018-07-04T11:29:46.793Z,6.97
2018-07-04T11:32:27.320Z,7.50
2018-07-04T11:35:07.868Z,7.73
2018-07-04T11:37:48.340Z,7.10
2018-07-04T11:40:28.725Z,7.27
2018-07-04T11:43:09.208Z,8.17
2018-07-04T11:45:49.744Z,10.23
2018-07-04T11:48:17.958Z,8.00
2018-07-04T11:50:46.210Z,8.70
2018-07-04T11:53:14.394Z,7.80
2018-07-04T11:55:42.563Z,10.73
2018-07-04T11:58:10.729Z,8.40
2018-07-04T12:00:38.851Z,7.40
2018-07-04T12:03:18.627Z,8.23
2018-07-04T12:05:59.356Z,8.63
2018-07-04T12:08:27.770Z,12.20
2018-07-04T12:10:56.445Z,7.93
2018-07-04T12:13:25.898Z,7.50
2018-07-04T12:15:54.215Z,7.60
2018-07-04T12:18:22.369Z,12.10
2018-07-04T12:20:50.538Z,9.40
2018-07-04T12:23:18.719Z,8.50
2018-07-04T12:25:46.880Z,5.83
2018-07-04T12:28:15.040Z,10.30
2018-07-04T12:30:43.153Z,5.50
2018-07-04T12:33:11.245Z,5.77
2018-07-04T12:35:39.238Z,6.40
2018-07-04T12:38:07.285Z,6.83
2018-07-04T12:40:35.502Z,21.77
2018-07-04T12:43:03.707Z,7.90
2018-07-04T12:45:39.395Z,9.63
2018-07-04T12:47:59.917Z,6.53
2018-07-04T12:50:29.643Z,12.97
2018-07-04T12:52:57.857Z,7.43
2018-07-04T12:55:39.602Z,11.47
2018-07-04T12:58:20.833Z,7.00
2018-07-04T13:01:01.437Z,5.43
2018-07-04T13:03:42.050Z,10.80
2018-07-04T13:06:23.013Z,5.70
2018-07-04T13:09:04.172Z,19.37
2018-07-04T13:11:44.581Z,5.77
2018-07-04T13:14:24.865Z,5.07
2018-07-04T13:17:05.298Z,6.33
2018-07-04T13:19:45.762Z,9.70
2018-07-04T13:22:26.012Z,6.00
2018-07-04T13:25:06.534Z,5.90
2018-07-04T13:27:46.974Z,7.27
2018-07-04T13:30:27.491Z,6.83
2018-07-04T13:33:07.801Z,8.63
2018-07-04T13:35:48.229Z,6.97
2018-07-04T13:38:28.671Z,6.10
2018-07-04T13:41:09.248Z,6.40
2018-07-04T13:43:49.869Z,24.17
2018-07-04T13:46:30.283Z,10.00
2018-07-04T13:49:10.796Z,6.53
2018-07-04T13:51:51.330Z,6.50
2018-07-04T13:54:31.716Z,9.17
2018-07-04T13:57:12.172Z,24.13
2018-07-04T13:59:52.642Z,11.67
2018-07-04T14:02:33.065Z,7.83
2018-07-04T14:05:13.538Z,8.87
2018-07-04T14:07:54.264Z,7.20
2018-07-04T14:10:34.916Z,7.20
2018-07-04T14:13:15.418Z,22.27
2018-07-04T14:15:55.706Z,12.60
2018-07-04T14:18:36.065Z,8.60
2018-07-04T14:21:16.517Z,10.03
2018-07-04T14:23:57.294Z,10.60
2018-07-04T14:26:37.935Z,7.40
2018-07-04T14:29:18.459Z,8.30
2018-07-04T14:31:58.863Z,10.30
2018-07-04T14:34:39.228Z,8.60
2018-07-04T14:37:20.014Z,12.53
2018-07-04T14:40:00.508Z,8.20
2018-07-04T14:42:40.973Z,10.43
2018-07-04T14:45:21.428Z,9.33
2018-07-04T14:48:02.258Z,8.57
2018-07-04T14:50:42.794Z,14.80
2018-07-04T14:53:23.134Z,9.37
2018-07-04T14:56:03.496Z,12.50
2018-07-04T14:58:43.947Z,8.50
2018-07-04T15:01:24.482Z,8.57
2018-07-04T15:04:05.061Z,8.83
2018-07-04T15:06:45.746Z,8.60
2018-07-04T15:09:26.438Z,7.80
2018-07-04T15:12:06.927Z,6.90
2018-07-04T15:14:47.447Z,6.13
2018-07-04T15:17:28.250Z,12.20
2018-07-04T15:20:08.842Z,6.83
2018-07-04T15:22:49.434Z,9.60
2018-07-04T15:25:30.192Z,6.20
2018-07-04T15:28:10.891Z,6.93
2018-07-04T15:30:51.808Z,5.40
2018-07-04T15:33:32.290Z,6.63
2018-07-04T15:36:13.063Z,5.40
2018-07-04T15:38:53.776Z,7.13
2018-07-04T15:41:34.581Z,7.37
2018-07-04T15:44:15.276Z,16.60
2018-07-04T15:46:56.044Z,5.23
2018-07-04T15:49:36.517Z,12.73
2018-07-04T15:52:17.324Z,18.30
2018-07-04T15:54:57.982Z,18.20
2018-07-04T15:57:38.638Z,8.43
2018-07-04T16:00:19.212Z,6.40
2018-07-04T16:02:59.995Z,6.80
2018-07-04T16:05:40.598Z,21.80
2018-07-04T16:08:21.169Z,6.40
2018-07-04T16:11:02.130Z,6.60
2018-07-04T16:13:42.979Z,6.60
2018-07-04T16:16:23.689Z,6.43
2018-07-04T16:19:04.391Z,6.40
2018-07-04T16:21:45.088Z,6.50
2018-07-04T16:24:26.016Z,6.87
2018-07-04T16:27:06.804Z,23.67
2018-07-04T16:29:47.476Z,12.90
2018-07-04T16:32:28.221Z,8.90
2018-07-04T16:35:08.814Z,8.37
2018-07-04T16:37:49.731Z,8.57
2018-07-04T16:40:30.899Z,10.33
2018-07-04T16:43:11.621Z,12.63
2018-07-04T16:45:52.255Z,18.77
2018-07-04T16:48:32.995Z,20.57
2018-07-04T16:51:13.849Z,8.50
2018-07-04T16:53:54.535Z,7.63
2018-07-04T16:56:35.363Z,16.93
2018-07-04T16:59:16.149Z,19.23
2018-07-04T17:01:57.031Z,8.37
2018-07-04T17:04:37.832Z,7.63
2018-07-04T17:07:18.657Z,7.40
2018-07-04T17:09:59.418Z,11.23
2018-07-04T17:12:40.374Z,8.27
2018-07-04T17:15:21.117Z,11.30
2018-07-04T17:18:01.740Z,14.10
2018-07-04T17:20:42.369Z,7.70
2018-07-04T17:23:23.165Z,8.93
2018-07-04T17:26:04.046Z,8.47
2018-07-04T17:28:44.918Z,9.07
2018-07-04T17:31:25.723Z,10.13
2018-07-04T17:34:06.309Z,9.80
2018-07-04T17:36:47.177Z,20.87
2018-07-04T17:39:28.050Z,10.53
2018-07-04T17:42:08.634Z,10.27
2018-07-04T17:44:49.311Z,9.83
2018-07-04T17:47:30.204Z,10.53
2018-07-04T17:50:11.005Z,12.27
2018-07-04T17:52:51.734Z,14.50
2018-07-04T17:55:32.453Z,14.93
2018-07-04T17:58:13.204Z,26.87
2018-07-04T18:00:54.014Z,21.20
2018-07-04T18:03:34.785Z,12.50
2018-07-04T18:06:15.358Z,14.13
2018-07-04T18:08:56.031Z,11.50
2018-07-04T18:11:36.794Z,10.87
2018-07-04T18:14:17.865Z,23.73
2018-07-04T18:16:58.734Z,11.23
2018-07-04T18:19:39.509Z,13.70
2018-07-04T18:22:20.181Z,12.60
2018-07-04T18:25:00.928Z,13.30
2018-07-04T18:27:41.637Z,18.87
2018-07-04T18:30:22.355Z,22.23
2018-07-04T18:33:03.176Z,13.87
2018-07-04T18:35:43.925Z,11.77
2018-07-04T18:38:24.591Z,12.37
2018-07-04T18:41:05.380Z,17.47
2018-07-04T18:43:46.033Z,12.47
2018-07-04T18:46:26.693Z,17.23
2018-07-04T18:49:07.541Z,18.00
2018-07-04T18:51:48.328Z,10.90
2018-07-04T18:54:28.876Z,12.50
2018-07-04T18:57:09.508Z,20.47
2018-07-04T18:59:50.030Z,12.10
2018-07-04T19:02:30.824Z,13.50
2018-07-04T19:05:11.628Z,12.77
2018-07-04T19:07:52.627Z,17.20
2018-07-04T19:10:33.357Z,11.07
2018-07-04T19:13:14.245Z,15.23
2018-07-04T19:15:55.317Z,12.90
2018-07-04T19:18:36.045Z,12.53
2018-07-04T19:21:16.627Z,12.33
2018-07-04T19:23:57.335Z,10.43
2018-07-04T19:26:38.061Z,15.03
2018-07-04T19:29:18.734Z,7.57
2018-07-04T19:31:59.208Z,7.83
2018-07-04T19:34:39.787Z,20.83
2018-07-04T19:37:20.225Z,12.73
2018-07-04T19:40:00.603Z,9.73
2018-07-04T19:42:41.125Z,5.90
2018-07-04T19:45:21.918Z,7.83
2018-07-04T19:48:02.732Z,4.17
2018-07-04T19:50:43.106Z,11.73
2018-07-04T19:53:23.574Z,4.13
2018-07-04T19:56:04.118Z,16.23
2018-07-04T19:58:44.427Z,4.97
2018-07-04T20:01:24.857Z,6.43
2018-07-04T20:04:05.238Z,4.50
2018-07-04T20:06:45.528Z,4.70
2018-07-04T20:09:26.070Z,5.30
2018-07-04T20:12:06.431Z,3.83
2018-07-04T20:14:46.858Z,4.80
2018-07-04T20:17:27.554Z,6.40
2018-07-04T20:20:07.991Z,3.40
2018-07-04T20:22:48.303Z,5.17
2018-07-04T20:25:28.736Z,4.30
2018-07-04T20:28:09.189Z,12.17
2018-07-04T20:30:49.753Z,8.73
2018-07-04T20:33:30.268Z,4.50
2018-07-04T20:36:10.731Z,4.77
2018-07-04T20:38:51.140Z,4.63
2018-07-04T20:41:32.649Z,3.13
2018-07-04T20:44:12.952Z,3.03
2018-07-04T20:46:53.509Z,5.47
2018-07-04T20:49:33.714Z,3.13
2018-07-04T20:52:14.071Z,2.33
2018-07-04T20:54:55.518Z,3.57
2018-07-04T20:57:35.856Z,2.57
2018-07-04T21:00:16.365Z,3.17
2018-07-04T21:02:57.001Z,2.50
2018-07-04T21:05:37.249Z,3.83
2018-07-04T21:08:17.789Z,2.50
2018-07-04T21:10:58.210Z,3.03
2018-07-04T21:13:38.585Z,3.07
2018-07-04T21:16:19.006Z,3.43
2018-07-04T21:18:59.461Z,4.97
2018-07-04T21:21:39.769Z,3.87
2018-07-04T21:24:20.202Z,3.13
2018-07-04T21:27:00.945Z,3.70
2018-07-04T21:29:41.331Z,4.97
2018-07-04T21:32:21.698Z,3.73
2018-07-04T21:35:02.037Z,3.67
2018-07-04T21:37:42.552Z,4.10
2018-07-04T21:40:22.928Z,4.47
2018-07-04T21:43:03.347Z,4.10
2018-07-04T21:45:43.786Z,4.30
2018-07-04T21:48:24.331Z,4.03
2018-07-04T21:51:04.842Z,4.43
2018-07-04T21:53:45.135Z,4.93
2018-07-04T21:56:25.459Z,3.20
2018-07-04T21:59:05.916Z,3.63
2018-07-04T22:01:46.465Z,3.57
2018-07-04T22:04:26.884Z,3.20
2018-07-04T22:07:07.316Z,5.17
2018-07-04T22:09:47.684Z,3.40
2018-07-04T22:12:28.062Z,4.00
2018-07-04T22:15:08.526Z,3.53
2018-07-04T22:17:48.787Z,3.43
2018-07-04T22:20:28.938Z,4.37
2018-07-04T22:23:09.327Z,3.10
2018-07-04T22:25:49.824Z,3.73
2018-07-04T22:28:30.249Z,2.93
2018-07-04T22:31:10.789Z,3.80
2018-07-04T22:33:51.125Z,10.40
2018-07-04T22:36:31.442Z,2.80
2018-07-04T22:39:11.948Z,2.77
2018-07-04T22:41:52.551Z,3.40
2018-07-04T22:44:33.169Z,3.50
2018-07-04T22:47:13.621Z,2.63
2018-07-04T22:49:53.952Z,5.00
2018-07-04T22:52:34.296Z,2.33
2018-07-04T22:55:14.789Z,3.60
2018-07-04T22:57:55.383Z,3.43
2018-07-04T23:00:35.799Z,2.70
2018-07-04T23:03:16.390Z,5.93
2018-07-04T23:05:56.812Z,2.97
2018-07-04T23:08:37.152Z,3.47
2018-07-04T23:11:17.573Z,2.80
2018-07-04T23:13:58.195Z,3.50
2018-07-04T23:16:38.810Z,4.13
2018-07-04T23:19:19.439Z,3.47
2018-07-04T23:22:00.046Z,3.37
2018-07-04T23:24:40.825Z,8.33
2018-07-04T23:27:21.241Z,2.80
2018-07-04T23:30:01.636Z,4.20
2018-07-04T23:32:42.201Z,3.03
2018-07-04T23:35:22.591Z,3.67
2018-07-04T23:38:02.905Z,3.70
2018-07-04T23:40:43.250Z,3.87
2018-07-04T23:43:23.505Z,4.70
2018-07-04T23:46:04.030Z,4.70
2018-07-04T23:48:44.521Z,6.67
2018-07-04T23:51:24.959Z,8.13
2018-07-04T23:54:05.384Z,3.30
2018-07-04T23:56:45.783Z,4.13
2018-07-04T23:59:26.220Z,3.50
